sensor_id;sensor_type;location;lat;lon;timestamp;pressure;altitude;pressure_sealevel;temperature;humidity
13011;BME280;6786;57.632;11.962;2024-01-27T00:00:01;100933.22;;;17.90;41.33
13011;BME280;6786;57.632;11.962;2024-01-27T00:02:29;101011.72;;;18.33;40.99
13011;BME280;6786;57.632;11.962;2024-01-27T00:04:57;101032.44;;;18.42;41.20
13011;BME280;6786;57.632;11.962;2024-01-27T00:07:26;101033.38;;;18.41;41.09
13011;BME280;6786;57.632;11.962;2024-01-27T00:09:55;101034.13;;;18.43;41.21
13011;BME280;6786;57.632;11.962;2024-01-27T00:12:23;101033.13;;;18.44;41.16
13011;BME280;6786;57.632;11.962;2024-01-27T00:14:53;100975.03;;;18.02;41.13
13011;BME280;6786;57.632;11.962;2024-01-27T00:17:22;101036.06;;;18.41;41.10
13011;BME280;6786;57.632;11.962;2024-01-27T00:19:52;101055.53;;;18.43;41.08
13011;BME280;6786;57.632;11.962;2024-01-27T00:22:20;101061.88;;;18.42;40.97
13011;BME280;6786;57.632;11.962;2024-01-27T00:24:48;101071.59;;;18.43;41.15
13011;BME280;6786;57.632;11.962;2024-01-27T00:27:16;101074.25;;;18.43;41.06
13011;BME280;6786;57.632;11.962;2024-01-27T00:29:45;101087.63;;;18.43;41.13
13011;BME280;6786;57.632;11.962;2024-01-27T00:32:15;101085.94;;;18.42;41.16
13011;BME280;6786;57.632;11.962;2024-01-27T00:34:43;101080.59;;;18.42;41.02
13011;BME280;6786;57.632;11.962;2024-01-27T00:37:11;101093.00;;;18.43;41.11
13011;BME280;6786;57.632;11.962;2024-01-27T00:39:39;101089.56;;;18.41;40.97
13011;BME280;6786;57.632;11.962;2024-01-27T00:42:08;101102.00;;;18.42;41.01
13011;BME280;6786;57.632;11.962;2024-01-27T00:44:36;101109.16;;;18.41;41.08
13011;BME280;6786;57.632;11.962;2024-01-27T00:47:04;101111.84;;;18.41;41.15
13011;BME280;6786;57.632;11.962;2024-01-27T00:49:34;101114.66;;;18.40;41.05
13011;BME280;6786;57.632;11.962;2024-01-27T00:52:03;101073.47;;;17.97;41.15
13011;BME280;6786;57.632;11.962;2024-01-27T00:54:32;101144.09;;;18.40;41.02
13011;BME280;6786;57.632;11.962;2024-01-27T00:57:00;101148.47;;;18.41;40.99
13011;BME280;6786;57.632;11.962;2024-01-27T00:59:28;101139.72;;;18.39;41.04
13011;BME280;6786;57.632;11.962;2024-01-27T01:01:57;101138.00;;;18.38;41.02
13011;BME280;6786;57.632;11.962;2024-01-27T01:04:25;101141.41;;;18.40;41.08
13011;BME280;6786;57.632;11.962;2024-01-27T01:06:55;101152.13;;;18.40;41.15
13011;BME280;6786;57.632;11.962;2024-01-27T01:09:24;101071.41;;;17.89;40.96
13011;BME280;6786;57.632;11.962;2024-01-27T01:11:52;101161.13;;;18.39;40.94
13011;BME280;6786;57.632;11.962;2024-01-27T01:14:21;101163.06;;;18.37;40.89
13011;BME280;6786;57.632;11.962;2024-01-27T01:16:50;101177.19;;;18.39;41.08
13011;BME280;6786;57.632;11.962;2024-01-27T01:19:18;101180.56;;;18.41;40.95
13011;BME280;6786;57.632;11.962;2024-01-27T01:21:46;101189.59;;;18.40;41.07
13011;BME280;6786;57.632;11.962;2024-01-27T01:24:16;101198.47;;;18.40;41.02
13011;BME280;6786;57.632;11.962;2024-01-27T01:26:44;101194.94;;;18.40;41.01
13011;BME280;6786;57.632;11.962;2024-01-27T01:29:12;101198.59;;;18.39;40.92
13011;BME280;6786;57.632;11.962;2024-01-27T01:31:41;101210.13;;;18.39;41.01
13011;BME280;6786;57.632;11.962;2024-01-27T01:34:10;101212.69;;;18.41;41.05
13011;BME280;6786;57.632;11.962;2024-01-27T01:36:38;101147.13;;;17.90;40.96
13011;BME280;6786;57.632;11.962;2024-01-27T01:39:07;101215.81;;;18.35;40.98
13011;BME280;6786;57.632;11.962;2024-01-27T01:41:37;101220.00;;;18.39;41.07
13011;BME280;6786;57.632;11.962;2024-01-27T01:44:05;101223.63;;;18.38;41.02
13011;BME280;6786;57.632;11.962;2024-01-27T01:46:33;101246.75;;;18.39;41.01
13011;BME280;6786;57.632;11.962;2024-01-27T01:49:01;101238.00;;;18.37;41.00
13011;BME280;6786;57.632;11.962;2024-01-27T01:51:30;101239.88;;;18.35;40.84
13011;BME280;6786;57.632;11.962;2024-01-27T01:53:59;101254.03;;;18.37;40.97
13011;BME280;6786;57.632;11.962;2024-01-27T01:56:28;101252.13;;;18.39;40.99
13011;BME280;6786;57.632;11.962;2024-01-27T01:58:58;101262.81;;;18.39;40.98
13011;BME280;6786;57.632;11.962;2024-01-27T02:01:26;101257.47;;;18.39;40.86
13011;BME280;6786;57.632;11.962;2024-01-27T02:03:56;101263.84;;;18.36;40.85
13011;BME280;6786;57.632;11.962;2024-01-27T02:06:24;101267.31;;;18.38;40.86
13011;BME280;6786;57.632;11.962;2024-01-27T02:08:53;101257.91;;;18.33;40.89
13011;BME280;6786;57.632;11.962;2024-01-27T02:11:21;101273.66;;;18.37;40.98
13011;BME280;6786;57.632;11.962;2024-01-27T02:13:50;101279.81;;;18.38;40.88
13011;BME280;6786;57.632;11.962;2024-01-27T02:16:20;101280.88;;;18.35;40.99
13011;BME280;6786;57.632;11.962;2024-01-27T02:18:48;101277.34;;;18.35;40.72
13011;BME280;6786;57.632;11.962;2024-01-27T02:21:17;101287.09;;;18.36;40.85
13011;BME280;6786;57.632;11.962;2024-01-27T02:23:45;101279.53;;;18.30;40.89
13011;BME280;6786;57.632;11.962;2024-01-27T02:26:15;101274.56;;;18.36;40.88
13011;BME280;6786;57.632;11.962;2024-01-27T02:28:43;101281.66;;;18.37;40.85
13011;BME280;6786;57.632;11.962;2024-01-27T02:31:11;101311.81;;;18.39;40.87
13011;BME280;6786;57.632;11.962;2024-01-27T02:33:39;101287.84;;;18.38;40.89
13011;BME280;6786;57.632;11.962;2024-01-27T02:36:08;101290.53;;;18.38;40.89
13011;BME280;6786;57.632;11.962;2024-01-27T02:38:36;101303.09;;;18.37;40.91
13011;BME280;6786;57.632;11.962;2024-01-27T02:41:05;101314.63;;;18.38;40.74
13011;BME280;6786;57.632;11.962;2024-01-27T02:43:34;101319.97;;;18.38;40.82
13011;BME280;6786;57.632;11.962;2024-01-27T02:46:03;101312.91;;;18.37;40.77
13011;BME280;6786;57.632;11.962;2024-01-27T02:48:32;101312.13;;;18.35;40.80
13011;BME280;6786;57.632;11.962;2024-01-27T02:51:02;101323.63;;;18.37;40.91
13011;BME280;6786;57.632;11.962;2024-01-27T02:53:30;101318.28;;;18.37;40.90
13011;BME280;6786;57.632;11.962;2024-01-27T02:55:59;101326.31;;;18.37;40.80
13011;BME280;6786;57.632;11.962;2024-01-27T02:58:27;101330.69;;;18.38;40.88
13011;BME280;6786;57.632;11.962;2024-01-27T03:00:56;101334.41;;;18.35;40.89
13011;BME280;6786;57.632;11.962;2024-01-27T03:03:25;101337.00;;;18.37;40.85
13011;BME280;6786;57.632;11.962;2024-01-27T03:05:53;101339.69;;;18.37;40.84
13011;BME280;6786;57.632;11.962;2024-01-27T03:08:22;101337.97;;;18.36;40.88
13011;BME280;6786;57.632;11.962;2024-01-27T03:10:50;101337.00;;;18.37;40.86
13011;BME280;6786;57.632;11.962;2024-01-27T03:13:18;101281.09;;;17.98;40.91
13011;BME280;6786;57.632;11.962;2024-01-27T03:15:46;101343.31;;;18.36;40.78
13011;BME280;6786;57.632;11.962;2024-01-27T03:18:17;101348.66;;;18.36;40.84
13011;BME280;6786;57.632;11.962;2024-01-27T03:20:46;101345.03;;;18.37;40.72
13011;BME280;6786;57.632;11.962;2024-01-27T03:23:14;101351.34;;;18.36;40.80
13011;BME280;6786;57.632;11.962;2024-01-27T03:25:42;101354.00;;;18.36;40.74
13011;BME280;6786;57.632;11.962;2024-01-27T03:28:11;101360.44;;;18.33;40.73
13011;BME280;6786;57.632;11.962;2024-01-27T03:30:39;101368.16;;;18.38;40.74
13011;BME280;6786;57.632;11.962;2024-01-27T03:33:07;101386.13;;;18.36;40.80
13011;BME280;6786;57.632;11.962;2024-01-27T03:35:39;101387.06;;;18.35;40.81
13011;BME280;6786;57.632;11.962;2024-01-27T03:38:07;101372.34;;;18.29;40.89
13011;BME280;6786;57.632;11.962;2024-01-27T03:40:36;101386.13;;;18.36;40.77
13011;BME280;6786;57.632;11.962;2024-01-27T03:43:04;101389.03;;;18.33;40.87
13011;BME280;6786;57.632;11.962;2024-01-27T03:45:32;101324.09;;;17.84;40.91
13011;BME280;6786;57.632;11.962;2024-01-27T03:48:00;101392.66;;;18.32;40.88
13011;BME280;6786;57.632;11.962;2024-01-27T03:50:29;101398.00;;;18.32;40.95
13011;BME280;6786;57.632;11.962;2024-01-27T03:52:59;101404.34;;;18.31;40.85
13011;BME280;6786;57.632;11.962;2024-01-27T03:55:27;101305.28;;;17.73;40.79
13011;BME280;6786;57.632;11.962;2024-01-27T03:57:55;101407.13;;;18.29;40.77
13011;BME280;6786;57.632;11.962;2024-01-27T04:00:24;101411.38;;;18.32;40.88
13011;BME280;6786;57.632;11.962;2024-01-27T04:02:52;101403.81;;;18.26;40.85
13011;BME280;6786;57.632;11.962;2024-01-27T04:05:21;101411.84;;;18.26;40.88
13011;BME280;6786;57.632;11.962;2024-01-27T04:07:49;101422.94;;;18.32;40.79
13011;BME280;6786;57.632;11.962;2024-01-27T04:10:20;101432.78;;;18.32;40.76
13011;BME280;6786;57.632;11.962;2024-01-27T04:12:48;101420.63;;;18.28;40.84
13011;BME280;6786;57.632;11.962;2024-01-27T04:15:16;101427.88;;;18.26;40.77
13011;BME280;6786;57.632;11.962;2024-01-27T04:17:45;101428.41;;;18.31;40.77
13011;BME280;6786;57.632;11.962;2024-01-27T04:20:13;101431.97;;;18.31;40.92
13011;BME280;6786;57.632;11.962;2024-01-27T04:22:41;101437.31;;;18.31;40.94
13011;BME280;6786;57.632;11.962;2024-01-27T04:25:09;101443.50;;;18.32;40.96
13011;BME280;6786;57.632;11.962;2024-01-27T04:27:40;101452.50;;;18.31;40.82
13011;BME280;6786;57.632;11.962;2024-01-27T04:30:11;101448.84;;;18.32;40.81
13011;BME280;6786;57.632;11.962;2024-01-27T04:32:40;101455.94;;;18.33;40.76
13011;BME280;6786;57.632;11.962;2024-01-27T04:35:09;101463.44;;;18.28;40.92
13011;BME280;6786;57.632;11.962;2024-01-27T04:37:38;101448.84;;;18.32;40.90
13011;BME280;6786;57.632;11.962;2024-01-27T04:40:07;101452.50;;;18.31;40.88
13011;BME280;6786;57.632;11.962;2024-01-27T04:42:38;101454.19;;;18.32;40.86
13011;BME280;6786;57.632;11.962;2024-01-27T04:45:07;101445.44;;;18.30;40.86
13011;BME280;6786;57.632;11.962;2024-01-27T04:47:36;101452.50;;;18.31;40.91
13011;BME280;6786;57.632;11.962;2024-01-27T04:50:05;101447.16;;;18.31;40.77
13011;BME280;6786;57.632;11.962;2024-01-27T04:52:33;101452.50;;;18.31;40.90
13011;BME280;6786;57.632;11.962;2024-01-27T04:55:02;101395.50;;;17.94;40.78
13011;BME280;6786;57.632;11.962;2024-01-27T04:57:30;101473.03;;;18.30;40.90
13011;BME280;6786;57.632;11.962;2024-01-27T05:00:01;101465.88;;;18.31;40.91
13011;BME280;6786;57.632;11.962;2024-01-27T05:02:30;101466.44;;;18.23;40.80
13011;BME280;6786;57.632;11.962;2024-01-27T05:04:58;101488.28;;;18.30;40.85
13011;BME280;6786;57.632;11.962;2024-01-27T05:07:26;101487.50;;;18.28;40.90
13011;BME280;6786;57.632;11.962;2024-01-27T05:09:55;101459.94;;;18.15;40.75
13011;BME280;6786;57.632;11.962;2024-01-27T05:12:23;101493.41;;;18.33;40.74
13011;BME280;6786;57.632;11.962;2024-01-27T05:14:51;101489.75;;;18.34;40.83
13011;BME280;6786;57.632;11.962;2024-01-27T05:17:21;101498.53;;;18.36;40.69
13011;BME280;6786;57.632;11.962;2024-01-27T05:19:50;101487.06;;;18.34;40.71
13011;BME280;6786;57.632;11.962;2024-01-27T05:22:18;101503.88;;;18.36;40.73
13011;BME280;6786;57.632;11.962;2024-01-27T05:24:46;101491.66;;;18.32;40.75
13011;BME280;6786;57.632;11.962;2024-01-27T05:27:14;101508.38;;;18.35;40.68
13011;BME280;6786;57.632;11.962;2024-01-27T05:29:42;101502.59;;;18.29;40.74
13011;BME280;6786;57.632;11.962;2024-01-27T05:32:11;101512.84;;;18.35;40.90
13011;BME280;6786;57.632;11.962;2024-01-27T05:34:40;101517.72;;;18.30;40.82
13011;BME280;6786;57.632;11.962;2024-01-27T05:37:09;101515.75;;;18.32;41.01
13011;BME280;6786;57.632;11.962;2024-01-27T05:39:37;101509.91;;;18.27;40.85
13011;BME280;6786;57.632;11.962;2024-01-27T05:42:06;101521.84;;;18.34;40.95
13011;BME280;6786;57.632;11.962;2024-01-27T05:44:35;101527.22;;;18.34;40.72
13011;BME280;6786;57.632;11.962;2024-01-27T05:47:04;101534.25;;;18.35;40.89
13011;BME280;6786;57.632;11.962;2024-01-27T05:49:37;101449.00;;;17.82;40.78
13011;BME280;6786;57.632;11.962;2024-01-27T05:52:07;101542.41;;;18.33;40.78
13011;BME280;6786;57.632;11.962;2024-01-27T05:54:35;101544.97;;;18.35;40.71
13011;BME280;6786;57.632;11.962;2024-01-27T05:57:04;101548.63;;;18.34;40.81
13011;BME280;6786;57.632;11.962;2024-01-27T05:59:32;101544.34;;;18.31;40.78
13011;BME280;6786;57.632;11.962;2024-01-27T06:02:00;101546.91;;;18.33;40.74
13011;BME280;6786;57.632;11.962;2024-01-27T06:04:29;101553.09;;;18.33;40.88
13011;BME280;6786;57.632;11.962;2024-01-27T06:06:58;101547.38;;;18.27;40.70
13011;BME280;6786;57.632;11.962;2024-01-27T06:09:28;101552.72;;;18.27;40.74
13011;BME280;6786;57.632;11.962;2024-01-27T06:11:59;101553.22;;;18.32;40.71
13011;BME280;6786;57.632;11.962;2024-01-27T06:14:27;101561.25;;;18.32;40.73
13011;BME280;6786;57.632;11.962;2024-01-27T06:16:56;101562.13;;;18.32;40.84
13011;BME280;6786;57.632;11.962;2024-01-27T06:19:24;101569.06;;;18.35;40.81
13011;BME280;6786;57.632;11.962;2024-01-27T06:21:53;101529.41;;;18.16;40.86
13011;BME280;6786;57.632;11.962;2024-01-27T06:24:21;101558.25;;;18.36;40.87
13011;BME280;6786;57.632;11.962;2024-01-27T06:26:51;101562.75;;;18.36;40.77
13011;BME280;6786;57.632;11.962;2024-01-27T06:29:19;101565.44;;;18.36;40.83
13011;BME280;6786;57.632;11.962;2024-01-27T06:31:48;101556.53;;;18.35;40.85
13011;BME280;6786;57.632;11.962;2024-01-27T06:34:17;101571.84;;;18.33;40.76
13011;BME280;6786;57.632;11.962;2024-01-27T06:36:45;101552.94;;;18.24;40.88
13011;BME280;6786;57.632;11.962;2024-01-27T06:39:13;101568.34;;;18.33;40.93
13011;BME280;6786;57.632;11.962;2024-01-27T06:41:42;101502.03;;;17.88;40.84
13011;BME280;6786;57.632;11.962;2024-01-27T06:44:12;101574.63;;;18.32;40.84
13011;BME280;6786;57.632;11.962;2024-01-27T06:46:40;101587.50;;;18.27;40.84
13011;BME280;6786;57.632;11.962;2024-01-27T06:49:08;101588.00;;;18.32;40.98
13011;BME280;6786;57.632;11.962;2024-01-27T06:51:36;101542.06;;;18.02;40.80
13011;BME280;6786;57.632;11.962;2024-01-27T06:54:05;101477.69;;;17.67;40.79
13011;BME280;6786;57.632;11.962;2024-01-27T06:56:33;101591.66;;;18.31;40.86
13011;BME280;6786;57.632;11.962;2024-01-27T06:59:01;101580.41;;;18.26;40.88
13011;BME280;6786;57.632;11.962;2024-01-27T07:01:32;101612.19;;;18.30;40.68
13011;BME280;6786;57.632;11.962;2024-01-27T07:04:01;101598.22;;;18.27;40.93
13011;BME280;6786;57.632;11.962;2024-01-27T07:06:29;101609.63;;;18.29;40.87
13011;BME280;6786;57.632;11.962;2024-01-27T07:08:58;101615.84;;;18.29;40.97
13011;BME280;6786;57.632;11.962;2024-01-27T07:11:26;101602.03;;;18.23;41.05
13011;BME280;6786;57.632;11.962;2024-01-27T07:13:54;101620.34;;;18.29;40.98
13011;BME280;6786;57.632;11.962;2024-01-27T07:16:22;101611.38;;;18.30;40.86
13011;BME280;6786;57.632;11.962;2024-01-27T07:18:52;101618.41;;;18.31;40.94
13011;BME280;6786;57.632;11.962;2024-01-27T07:21:20;101617.66;;;18.29;40.83
13011;BME280;6786;57.632;11.962;2024-01-27T07:23:49;101622.50;;;18.24;40.93
13011;BME280;6786;57.632;11.962;2024-01-27T07:26:17;101617.16;;;18.24;40.92
13011;BME280;6786;57.632;11.962;2024-01-27T07:28:45;101625.91;;;18.26;41.03
13011;BME280;6786;57.632;11.962;2024-01-27T07:31:13;101550.16;;;17.75;40.88
13011;BME280;6786;57.632;11.962;2024-01-27T07:33:42;101627.84;;;18.24;40.95
13011;BME280;6786;57.632;11.962;2024-01-27T07:36:11;101632.13;;;18.26;40.90
13011;BME280;6786;57.632;11.962;2024-01-27T07:38:40;101560.44;;;17.81;40.96
13011;BME280;6786;57.632;11.962;2024-01-27T07:41:08;101634.41;;;18.20;41.03
13011;BME280;6786;57.632;11.962;2024-01-27T07:43:36;101570.31;;;17.81;40.78
13011;BME280;6786;57.632;11.962;2024-01-27T07:46:05;101647.53;;;18.23;41.07
13011;BME280;6786;57.632;11.962;2024-01-27T07:48:33;101649.47;;;18.21;41.31
13011;BME280;6786;57.632;11.962;2024-01-27T07:51:01;101579.25;;;17.80;40.91
13011;BME280;6786;57.632;11.962;2024-01-27T07:53:31;101656.53;;;18.22;41.04
13011;BME280;6786;57.632;11.962;2024-01-27T07:55:59;101656.53;;;18.22;41.17
13011;BME280;6786;57.632;11.962;2024-01-27T07:58:31;101665.75;;;18.18;41.15
13011;BME280;6786;57.632;11.962;2024-01-27T08:00:59;101608.38;;;17.72;41.19
13011;BME280;6786;57.632;11.962;2024-01-27T08:03:27;101680.31;;;18.14;41.26
13011;BME280;6786;57.632;11.962;2024-01-27T08:05:55;101651.19;;;17.97;41.31
13011;BME280;6786;57.632;11.962;2024-01-27T08:08:24;101587.41;;;17.66;41.27
13011;BME280;6786;57.632;11.962;2024-01-27T08:10:53;101662.53;;;18.00;41.20
13011;BME280;6786;57.632;11.962;2024-01-27T08:13:22;101679.53;;;18.12;41.29
13011;BME280;6786;57.632;11.962;2024-01-27T08:15:50;101685.00;;;18.10;41.40
13011;BME280;6786;57.632;11.962;2024-01-27T08:18:19;101685.88;;;18.11;41.49
13011;BME280;6786;57.632;11.962;2024-01-27T08:20:47;101700.50;;;18.05;41.28
13011;BME280;6786;57.632;11.962;2024-01-27T08:23:15;101705.44;;;18.11;41.31
13011;BME280;6786;57.632;11.962;2024-01-27T08:25:44;101646.53;;;17.74;41.30
13011;BME280;6786;57.632;11.962;2024-01-27T08:28:15;101719.69;;;18.12;41.24
13011;BME280;6786;57.632;11.962;2024-01-27T08:30:43;101716.03;;;18.13;41.26
13011;BME280;6786;57.632;11.962;2024-01-27T08:33:12;101725.78;;;18.14;41.24
13011;BME280;6786;57.632;11.962;2024-01-27T08:35:41;101714.13;;;18.15;41.26
13011;BME280;6786;57.632;11.962;2024-01-27T08:38:09;101709.19;;;18.09;41.25
13011;BME280;6786;57.632;11.962;2024-01-27T08:40:37;101724.06;;;18.13;41.39
13011;BME280;6786;57.632;11.962;2024-01-27T08:43:05;101718.72;;;18.13;41.34
13011;BME280;6786;57.632;11.962;2024-01-27T08:45:36;101721.59;;;18.10;41.28
13011;BME280;6786;57.632;11.962;2024-01-27T08:48:06;101714.44;;;18.10;41.39
13011;BME280;6786;57.632;11.962;2024-01-27T08:50:34;101717.22;;;18.09;41.41
13011;BME280;6786;57.632;11.962;2024-01-27T08:53:03;101732.28;;;18.10;41.32
13011;BME280;6786;57.632;11.962;2024-01-27T08:55:31;101726.72;;;18.13;41.24
13011;BME280;6786;57.632;11.962;2024-01-27T08:57:59;101726.31;;;18.19;41.26
13011;BME280;6786;57.632;11.962;2024-01-27T09:00:27;101729.75;;;18.21;41.13
13011;BME280;6786;57.632;11.962;2024-01-27T09:02:57;101731.56;;;18.20;41.05
13011;BME280;6786;57.632;11.962;2024-01-27T09:05:25;101726.09;;;18.22;41.18
13011;BME280;6786;57.632;11.962;2024-01-27T09:07:55;101727.81;;;18.23;41.11
13011;BME280;6786;57.632;11.962;2024-01-27T09:10:23;101727.81;;;18.23;40.99
13011;BME280;6786;57.632;11.962;2024-01-27T09:12:51;101726.09;;;18.22;40.94
13011;BME280;6786;57.632;11.962;2024-01-27T09:15:19;101725.91;;;18.25;41.10
13011;BME280;6786;57.632;11.962;2024-01-27T09:17:47;101731.25;;;18.25;41.01
13011;BME280;6786;57.632;11.962;2024-01-27T09:20:17;101745.59;;;18.24;41.23
13011;BME280;6786;57.632;11.962;2024-01-27T09:22:46;101749.09;;;18.12;41.37
13011;BME280;6786;57.632;11.962;2024-01-27T09:25:16;101742.56;;;18.16;41.24
13011;BME280;6786;57.632;11.962;2024-01-27T09:27:44;101755.00;;;18.17;41.34
13011;BME280;6786;57.632;11.962;2024-01-27T09:30:13;101746.44;;;18.12;41.31
13011;BME280;6786;57.632;11.962;2024-01-27T09:32:42;101760.25;;;18.18;41.29
13011;BME280;6786;57.632;11.962;2024-01-27T09:35:10;101767.72;;;18.26;41.21
13011;BME280;6786;57.632;11.962;2024-01-27T09:37:40;101763.56;;;18.22;41.21
13011;BME280;6786;57.632;11.962;2024-01-27T09:40:10;101764.19;;;18.13;41.46
13011;BME280;6786;57.632;11.962;2024-01-27T09:42:39;101768.19;;;18.20;41.23
13011;BME280;6786;57.632;11.962;2024-01-27T09:45:12;101769.13;;;18.19;41.16
13011;BME280;6786;57.632;11.962;2024-01-27T09:47:42;101774.06;;;18.25;41.08
13011;BME280;6786;57.632;11.962;2024-01-27T09:50:11;101766.78;;;18.27;41.08
13011;BME280;6786;57.632;11.962;2024-01-27T09:52:41;101773.44;;;18.34;41.21
13011;BME280;6786;57.632;11.962;2024-01-27T09:55:09;101774.13;;;18.37;41.07
13011;BME280;6786;57.632;11.962;2024-01-27T09:57:38;101778.41;;;18.40;41.08
13011;BME280;6786;57.632;11.962;2024-01-27T10:00:10;101631.63;;;17.44;41.09
13011;BME280;6786;57.632;11.962;2024-01-27T10:02:39;101776.00;;;18.35;41.07
13011;BME280;6786;57.632;11.962;2024-01-27T10:05:09;101646.63;;;17.59;41.09
13011;BME280;6786;57.632;11.962;2024-01-27T10:07:37;101784.63;;;18.40;41.03
13011;BME280;6786;57.632;11.962;2024-01-27T10:10:07;101787.41;;;18.39;41.20
13011;BME280;6786;57.632;11.962;2024-01-27T10:12:39;101785.66;;;18.38;41.03
13011;BME280;6786;57.632;11.962;2024-01-27T10:15:18;101789.31;;;18.37;41.13
13011;BME280;6786;57.632;11.962;2024-01-27T10:17:47;101792.06;;;18.35;41.18
13011;BME280;6786;57.632;11.962;2024-01-27T10:20:15;101791.19;;;18.35;41.14
13011;BME280;6786;57.632;11.962;2024-01-27T10:22:46;101715.78;;;17.91;41.21
13011;BME280;6786;57.632;11.962;2024-01-27T10:25:16;101792.06;;;18.35;41.22
13011;BME280;6786;57.632;11.962;2024-01-27T10:27:44;101798.28;;;18.36;41.10
13011;BME280;6786;57.632;11.962;2024-01-27T10:30:16;101786.47;;;18.26;41.05
13011;BME280;6786;57.632;11.962;2024-01-27T10:32:55;101784.75;;;18.25;41.35
13011;BME280;6786;57.632;11.962;2024-01-27T10:35:24;101786.47;;;18.26;41.29
13011;BME280;6786;57.632;11.962;2024-01-27T10:37:53;101651.09;;;17.46;41.27
13011;BME280;6786;57.632;11.962;2024-01-27T10:40:27;101808.53;;;18.29;41.27
13011;BME280;6786;57.632;11.962;2024-01-27T10:43:00;101802.09;;;18.32;41.24
13011;BME280;6786;57.632;11.962;2024-01-27T10:45:35;101791.19;;;18.35;41.19
13011;BME280;6786;57.632;11.962;2024-01-27T10:48:05;101798.28;;;18.36;41.19
13011;BME280;6786;57.632;11.962;2024-01-27T10:50:37;101800.03;;;18.37;41.00
13011;BME280;6786;57.632;11.962;2024-01-27T10:53:20;101793.78;;;18.36;41.19
13011;BME280;6786;57.632;11.962;2024-01-27T10:55:53;101803.84;;;18.33;41.06
13011;BME280;6786;57.632;11.962;2024-01-27T10:58:23;101809.47;;;18.16;41.39
13011;BME280;6786;57.632;11.962;2024-01-27T11:00:52;101813.03;;;18.29;41.19
13011;BME280;6786;57.632;11.962;2024-01-27T11:03:22;101819.91;;;18.33;41.18
13011;BME280;6786;57.632;11.962;2024-01-27T11:05:51;101810.13;;;18.32;41.19
13011;BME280;6786;57.632;11.962;2024-01-27T11:08:20;101817.97;;;18.35;41.21
13011;BME280;6786;57.632;11.962;2024-01-27T11:10:52;101825.88;;;18.36;41.19
13011;BME280;6786;57.632;11.962;2024-01-27T11:13:21;101825.06;;;18.36;41.13
13011;BME280;6786;57.632;11.962;2024-01-27T11:15:51;101825.06;;;18.36;41.15
13011;BME280;6786;57.632;11.962;2024-01-27T11:18:20;101830.41;;;18.36;41.20
13011;BME280;6786;57.632;11.962;2024-01-27T11:20:49;101826.78;;;18.37;41.29
13011;BME280;6786;57.632;11.962;2024-01-27T11:23:20;101830.41;;;18.36;41.22
13011;BME280;6786;57.632;11.962;2024-01-27T11:25:49;101841.09;;;18.36;41.17
13011;BME280;6786;57.632;11.962;2024-01-27T11:28:25;101825.88;;;18.36;41.06
13011;BME280;6786;57.632;11.962;2024-01-27T11:30:54;101826.78;;;18.37;41.22
13011;BME280;6786;57.632;11.962;2024-01-27T11:33:24;101825.88;;;18.36;41.23
13011;BME280;6786;57.632;11.962;2024-01-27T11:36:00;101818.06;;;18.33;41.22
13011;BME280;6786;57.632;11.962;2024-01-27T11:38:30;101823.13;;;18.38;41.18
13011;BME280;6786;57.632;11.962;2024-01-27T11:40:59;101816.09;;;18.37;41.06
13011;BME280;6786;57.632;11.962;2024-01-27T11:43:29;101811.31;;;18.28;41.22
13011;BME280;6786;57.632;11.962;2024-01-27T11:45:57;101837.50;;;18.37;41.06
13011;BME280;6786;57.632;11.962;2024-01-27T11:48:26;101826.78;;;18.37;41.15
13011;BME280;6786;57.632;11.962;2024-01-27T11:51:04;101827.56;;;18.39;41.04
13011;BME280;6786;57.632;11.962;2024-01-27T11:53:33;101833.00;;;18.37;41.19
13011;BME280;6786;57.632;11.962;2024-01-27T11:56:02;101839.19;;;18.38;41.17
13011;BME280;6786;57.632;11.962;2024-01-27T11:58:33;101820.09;;;18.30;41.30
13011;BME280;6786;57.632;11.962;2024-01-27T12:01:01;101821.81;;;18.31;41.27
13011;BME280;6786;57.632;11.962;2024-01-27T12:03:29;101832.13;;;18.37;40.97
13011;BME280;6786;57.632;11.962;2024-01-27T12:05:58;101828.50;;;18.38;41.31
13011;BME280;6786;57.632;11.962;2024-01-27T12:08:26;101843.72;;;18.37;41.24
13011;BME280;6786;57.632;11.962;2024-01-27T12:10:56;101849.91;;;18.38;41.29
13011;BME280;6786;57.632;11.962;2024-01-27T12:13:24;101841.31;;;18.33;41.20
13011;BME280;6786;57.632;11.962;2024-01-27T12:15:54;101850.88;;;18.37;41.34
13011;BME280;6786;57.632;11.962;2024-01-27T12:18:22;101855.25;;;18.38;41.23
13011;BME280;6786;57.632;11.962;2024-01-27T12:20:55;101871.50;;;18.35;41.33
13011;BME280;6786;57.632;11.962;2024-01-27T12:23:24;101868.06;;;18.33;41.36
13011;BME280;6786;57.632;11.962;2024-01-27T12:25:53;101865.59;;;18.30;41.35
13011;BME280;6786;57.632;11.962;2024-01-27T12:28:22;101859.50;;;18.28;41.28
13011;BME280;6786;57.632;11.962;2024-01-27T12:30:53;101869.63;;;18.37;41.47
13011;BME280;6786;57.632;11.962;2024-01-27T12:33:22;101872.09;;;18.26;41.57
13011;BME280;6786;57.632;11.962;2024-01-27T12:35:52;101880.03;;;18.27;41.72
13011;BME280;6786;57.632;11.962;2024-01-27T12:38:22;101879.41;;;18.24;41.58
13011;BME280;6786;57.632;11.962;2024-01-27T12:40:51;101878.31;;;18.14;41.66
13011;BME280;6786;57.632;11.962;2024-01-27T12:43:19;101876.16;;;18.19;41.91
13011;BME280;6786;57.632;11.962;2024-01-27T12:45:47;101867.41;;;18.17;41.71
13011;BME280;6786;57.632;11.962;2024-01-27T12:48:17;101893.50;;;18.26;41.74
13011;BME280;6786;57.632;11.962;2024-01-27T12:50:46;101909.13;;;18.19;41.60
13011;BME280;6786;57.632;11.962;2024-01-27T12:53:14;101896.19;;;18.26;41.77
13011;BME280;6786;57.632;11.962;2024-01-27T12:55:42;101895.44;;;18.24;41.64
13011;BME280;6786;57.632;11.962;2024-01-27T12:58:11;101915.88;;;18.25;41.72